createdAt,value
2022-11-30T00:01:47.015Z,7.60
2022-11-30T00:04:18.205Z,7.60
2022-11-30T00:06:45.806Z,7.60
2022-11-30T00:09:15.028Z,7.60
2022-11-30T00:11:42.625Z,7.60
2022-11-30T00:14:10.246Z,7.70
2022-11-30T00:16:37.900Z,7.70
2022-11-30T00:19:05.561Z,7.70
2022-11-30T00:21:33.188Z,7.80
2022-11-30T00:24:21.041Z,7.80
2022-11-30T00:26:48.763Z,7.80
2022-11-30T00:29:16.453Z,7.80
2022-11-30T00:31:44.201Z,7.80
2022-11-30T00:34:12.134Z,7.80
2022-11-30T00:36:39.900Z,7.90
2022-11-30T00:39:07.694Z,7.90
2022-11-30T00:41:36.735Z,7.90
2022-11-30T00:44:04.409Z,7.90
2022-11-30T00:46:32.382Z,7.90
2022-11-30T00:49:00.106Z,7.90
2022-11-30T00:51:27.806Z,7.90
2022-11-30T00:53:55.602Z,7.90
2022-11-30T00:56:24.935Z,7.90
2022-11-30T00:58:54.115Z,8.00
2022-11-30T01:01:21.849Z,7.90
2022-11-30T01:03:49.643Z,7.90
2022-11-30T01:06:17.332Z,7.80
2022-11-30T01:08:45.084Z,7.80
2022-11-30T01:11:13.697Z,7.80
2022-11-30T01:13:41.404Z,7.70
2022-11-30T01:16:12.060Z,7.70
2022-11-30T01:18:39.879Z,7.70
2022-11-30T01:21:08.122Z,7.70
2022-11-30T01:23:35.854Z,7.70
2022-11-30T01:26:03.815Z,7.70
2022-11-30T01:28:31.514Z,7.70
2022-11-30T01:30:59.339Z,7.70
2022-11-30T01:33:28.654Z,7.70
2022-11-30T01:35:59.786Z,7.60
2022-11-30T01:38:27.491Z,7.60
2022-11-30T01:40:55.183Z,7.60
2022-11-30T01:43:23.003Z,7.60
2022-11-30T01:45:50.911Z,7.50
2022-11-30T01:48:18.638Z,7.60
2022-11-30T01:50:47.852Z,7.60
2022-11-30T01:53:16.053Z,7.60
2022-11-30T01:55:45.983Z,7.60
2022-11-30T01:58:16.090Z,7.70
2022-11-30T02:00:45.211Z,7.70
2022-11-30T02:03:16.022Z,7.70
2022-11-30T02:05:43.793Z,7.80
2022-11-30T02:08:12.969Z,7.80
2022-11-30T02:10:41.698Z,7.70
2022-11-30T02:13:16.989Z,7.70
2022-11-30T02:15:49.271Z,7.70
2022-11-30T02:18:20.652Z,7.70
2022-11-30T02:20:54.262Z,7.70
2022-11-30T02:23:45.611Z,7.70
2022-11-30T02:26:19.317Z,7.70
2022-11-30T02:28:58.246Z,7.70
2022-11-30T02:31:29.028Z,7.70
2022-11-30T02:33:59.014Z,7.70
2022-11-30T02:36:27.504Z,7.70
2022-11-30T02:38:55.445Z,7.70
2022-11-30T02:41:23.139Z,7.70
2022-11-30T02:43:51.116Z,7.70
2022-11-30T02:46:23.987Z,7.80
2022-11-30T02:48:54.294Z,7.80
2022-11-30T02:51:23.554Z,7.80
2022-11-30T02:53:51.288Z,7.80
2022-11-30T02:56:19.634Z,7.90
2022-11-30T02:58:47.540Z,8.00
2022-11-30T03:01:15.268Z,8.00
2022-11-30T03:03:44.832Z,8.00
2022-11-30T03:06:12.664Z,8.00
2022-11-30T03:08:40.355Z,7.90
2022-11-30T03:11:08.042Z,7.80
2022-11-30T03:13:36.008Z,7.80
2022-11-30T03:16:07.127Z,7.80
2022-11-30T03:18:34.879Z,7.80
2022-11-30T03:21:05.510Z,7.80
2022-11-30T03:23:33.213Z,7.70
2022-11-30T03:26:00.903Z,7.70
2022-11-30T03:28:28.810Z,7.70
2022-11-30T03:30:57.508Z,7.80
2022-11-30T03:33:25.281Z,7.80
2022-11-30T03:35:59.691Z,7.80
2022-11-30T03:38:28.864Z,7.80
2022-11-30T03:41:02.920Z,7.90
2022-11-30T03:43:30.614Z,7.90
2022-11-30T03:45:58.304Z,7.90
2022-11-30T03:48:26.064Z,7.90
2022-11-30T03:50:53.742Z,7.80
2022-11-30T03:53:22.765Z,7.80
2022-11-30T03:55:54.829Z,7.80
2022-11-30T03:58:22.996Z,7.80
2022-11-30T04:00:51.238Z,7.80
2022-11-30T04:03:19.129Z,7.80
2022-11-30T04:05:47.609Z,7.80
2022-11-30T04:08:15.286Z,7.70
2022-11-30T04:10:42.977Z,7.70
2022-11-30T04:13:12.031Z,7.70
2022-11-30T04:15:39.802Z,7.80
2022-11-30T04:18:07.534Z,7.70
2022-11-30T04:20:40.223Z,7.60
2022-11-30T04:23:08.585Z,7.60
2022-11-30T04:25:38.136Z,7.60
2022-11-30T04:28:05.846Z,7.60
2022-11-30T04:30:35.450Z,7.60
2022-11-30T04:33:03.248Z,7.70
2022-11-30T04:35:30.975Z,7.70
2022-11-30T04:37:58.905Z,7.70
2022-11-30T04:40:26.604Z,7.70
2022-11-30T04:42:54.316Z,7.80
2022-11-30T04:45:21.994Z,7.80
2022-11-30T04:47:50.997Z,7.90
2022-11-30T04:50:18.777Z,7.90
2022-11-30T04:52:47.782Z,7.80
2022-11-30T04:55:17.115Z,7.90
2022-11-30T04:57:44.801Z,7.90
2022-11-30T05:00:13.360Z,8.00
2022-11-30T05:02:41.032Z,7.90
2022-11-30T05:05:10.852Z,7.90
2022-11-30T05:07:38.835Z,7.90
2022-11-30T05:10:07.858Z,7.90
2022-11-30T05:12:35.751Z,8.00
2022-11-30T05:15:03.484Z,8.00
2022-11-30T05:17:31.169Z,7.90
2022-11-30T05:19:58.810Z,8.00
2022-11-30T05:22:27.851Z,8.00
2022-11-30T05:24:55.575Z,8.00
2022-11-30T05:27:23.257Z,8.10
2022-11-30T05:29:50.958Z,8.10
2022-11-30T05:32:19.062Z,8.10
2022-11-30T05:34:51.008Z,8.10
2022-11-30T05:37:19.219Z,8.10
2022-11-30T05:39:48.360Z,8.10
2022-11-30T05:42:16.035Z,8.20
2022-11-30T05:44:43.775Z,8.20
2022-11-30T05:47:11.546Z,8.20
2022-11-30T05:49:39.332Z,8.20
2022-11-30T05:52:07.034Z,8.20
2022-11-30T05:54:34.763Z,8.10
2022-11-30T05:57:05.255Z,8.20
2022-11-30T05:59:32.985Z,8.20
2022-11-30T06:02:00.749Z,8.20
2022-11-30T06:04:28.643Z,8.20
2022-11-30T06:06:56.494Z,8.20
2022-11-30T06:09:24.219Z,8.20
2022-11-30T06:11:52.077Z,8.20
2022-11-30T06:14:21.168Z,8.20
2022-11-30T06:16:48.884Z,8.30
2022-11-30T06:19:16.578Z,8.30
2022-11-30T06:21:44.259Z,8.30
2022-11-30T06:24:12.062Z,8.20
2022-11-30T06:26:39.767Z,8.20
2022-11-30T06:29:07.453Z,8.20
2022-11-30T06:31:36.548Z,8.20
2022-11-30T06:34:04.285Z,8.20
2022-11-30T06:36:35.714Z,8.20
2022-11-30T06:39:04.519Z,8.10
2022-11-30T06:41:32.528Z,8.10
2022-11-30T06:44:00.255Z,8.10
2022-11-30T06:46:27.952Z,8.10
2022-11-30T06:48:56.990Z,8.10
2022-11-30T06:51:24.641Z,8.20
2022-11-30T06:53:52.339Z,8.20
2022-11-30T06:56:20.046Z,8.10
2022-11-30T06:58:47.710Z,8.10
2022-11-30T07:01:16.138Z,8.10
2022-11-30T07:03:44.400Z,8.10
2022-11-30T07:06:14.454Z,8.10
2022-11-30T07:08:42.712Z,8.10
2022-11-30T07:11:11.393Z,8.10
2022-11-30T07:13:39.157Z,8.10
2022-11-30T07:16:07.697Z,8.10
2022-11-30T07:18:35.957Z,8.10
2022-11-30T07:21:04.904Z,8.10
2022-11-30T07:23:56.346Z,8.10
2022-11-30T07:26:25.329Z,8.10
2022-11-30T07:28:55.337Z,8.10
2022-11-30T07:31:24.674Z,8.10
2022-11-30T07:33:52.744Z,8.10
2022-11-30T07:36:21.277Z,8.10
2022-11-30T07:38:50.360Z,8.20
2022-11-30T07:41:18.125Z,8.10
2022-11-30T07:43:45.929Z,8.10
2022-11-30T07:46:14.417Z,8.10
2022-11-30T07:48:42.505Z,8.10
2022-11-30T07:51:13.062Z,8.10
2022-11-30T07:53:40.750Z,8.10
2022-11-30T07:56:11.198Z,8.10
2022-11-30T07:58:39.104Z,8.10
2022-11-30T08:01:07.933Z,8.10
2022-11-30T08:03:37.312Z,8.10
2022-11-30T08:06:07.095Z,8.20
2022-11-30T08:08:35.753Z,8.20
2022-11-30T08:11:03.884Z,8.30
2022-11-30T08:13:33.216Z,8.30
2022-11-30T08:16:02.230Z,8.40
2022-11-30T08:18:30.199Z,8.40
2022-11-30T08:20:58.557Z,8.40
2022-11-30T08:23:26.413Z,8.40
2022-11-30T08:25:54.149Z,8.50
2022-11-30T08:28:21.854Z,8.50
2022-11-30T08:30:50.936Z,8.60
2022-11-30T08:33:18.690Z,8.60
2022-11-30T08:35:46.384Z,8.60
2022-11-30T08:38:14.062Z,8.60
2022-11-30T08:40:41.814Z,8.70
2022-11-30T08:43:09.530Z,8.60
2022-11-30T08:45:37.285Z,8.60
2022-11-30T08:48:06.609Z,8.50
2022-11-30T08:50:34.290Z,8.50
2022-11-30T08:55:55.913Z,8.50
2022-11-30T08:58:23.601Z,8.50
2022-11-30T09:03:21.246Z,8.50
2022-11-30T09:05:48.936Z,8.60
2022-11-30T09:08:16.593Z,8.60
2022-11-30T09:10:44.280Z,8.60
2022-11-30T09:13:11.961Z,8.60
2022-11-30T09:15:39.712Z,8.80
2022-11-30T09:18:07.533Z,9.00
2022-11-30T09:20:37.294Z,9.10
2022-11-30T09:23:04.991Z,9.30
2022-11-30T09:25:32.787Z,9.30
2022-11-30T09:28:00.462Z,9.40
2022-11-30T09:30:28.195Z,9.40
2022-11-30T09:32:55.962Z,9.40
2022-11-30T09:35:23.632Z,9.50
2022-11-30T09:37:53.111Z,9.50
2022-11-30T09:40:22.530Z,9.50
2022-11-30T09:42:55.543Z,9.50
2022-11-30T09:45:26.008Z,9.50
2022-11-30T09:48:08.464Z,9.50
2022-11-30T09:50:38.698Z,9.50
2022-11-30T09:53:15.606Z,9.50
2022-11-30T09:55:44.222Z,9.40
2022-11-30T09:58:16.340Z,9.40
2022-11-30T10:00:44.781Z,9.40
2022-11-30T10:03:14.077Z,9.40
2022-11-30T10:05:46.328Z,9.30
2022-11-30T10:08:23.842Z,9.40
2022-11-30T10:10:56.537Z,9.40
2022-11-30T10:13:31.453Z,9.40
2022-11-30T10:16:04.814Z,9.40
2022-11-30T10:18:38.042Z,9.40
2022-11-30T10:21:14.239Z,9.40
2022-11-30T10:23:53.885Z,9.40
2022-11-30T10:26:25.181Z,9.50
2022-11-30T10:28:53.831Z,9.50
2022-11-30T10:31:26.423Z,9.50
2022-11-30T10:33:55.235Z,9.50
2022-11-30T10:36:28.016Z,9.40
2022-11-30T10:38:58.613Z,9.30
2022-11-30T10:41:29.330Z,9.40
2022-11-30T10:44:00.215Z,9.40
2022-11-30T10:46:29.257Z,9.40
2022-11-30T10:48:59.466Z,9.40
2022-11-30T10:51:27.629Z,9.30
2022-11-30T10:53:58.231Z,9.40
2022-11-30T10:56:26.165Z,9.40
2022-11-30T10:58:55.464Z,9.40
2022-11-30T11:01:30.463Z,9.40
2022-11-30T11:04:08.149Z,9.40
2022-11-30T11:06:36.568Z,9.30
2022-11-30T11:09:19.144Z,9.30
2022-11-30T11:11:53.538Z,9.30
2022-11-30T11:14:22.913Z,9.30
2022-11-30T11:16:52.067Z,9.30
2022-11-30T11:19:24.448Z,9.30
2022-11-30T11:21:52.490Z,9.40
2022-11-30T11:24:20.893Z,9.40
2022-11-30T11:26:53.681Z,9.40
2022-11-30T11:29:31.164Z,9.40
2022-11-30T11:32:16.528Z,9.40
2022-11-30T11:34:47.989Z,9.40
2022-11-30T11:37:20.373Z,9.50
2022-11-30T11:39:59.238Z,9.50
2022-11-30T11:42:30.005Z,9.40
2022-11-30T11:44:59.799Z,9.40
2022-11-30T11:47:28.545Z,9.30
2022-11-30T11:50:06.897Z,9.20
2022-11-30T11:52:34.600Z,9.00
2022-11-30T11:55:04.552Z,8.90
2022-11-30T11:57:38.640Z,8.80
2022-11-30T12:00:15.652Z,8.60
2022-11-30T12:02:48.883Z,8.50
2022-11-30T12:05:18.443Z,8.50
2022-11-30T12:07:47.638Z,8.60
2022-11-30T12:10:50.610Z,8.60
2022-11-30T12:13:16.375Z,8.70
2022-11-30T12:15:53.319Z,8.80
2022-11-30T12:18:24.398Z,8.90
2022-11-30T12:20:56.968Z,9.00
2022-11-30T12:23:48.438Z,9.00
2022-11-30T12:26:21.911Z,9.10
2022-11-30T12:28:57.834Z,9.10
2022-11-30T12:31:32.366Z,9.10
2022-11-30T12:34:07.009Z,9.10
2022-11-30T12:36:43.211Z,9.10
2022-11-30T12:39:18.042Z,9.10
2022-11-30T12:41:50.626Z,9.00
2022-11-30T12:44:28.602Z,9.00
2022-11-30T12:46:59.005Z,9.00
2022-11-30T12:49:34.800Z,9.00
2022-11-30T12:52:05.722Z,9.10
2022-11-30T12:54:37.786Z,9.10
2022-11-30T12:57:11.803Z,9.10
2022-11-30T12:59:44.588Z,9.10
2022-11-30T13:02:24.584Z,9.10
2022-11-30T13:04:58.415Z,9.20
2022-11-30T13:07:28.722Z,9.20
2022-11-30T13:09:59.255Z,9.10
2022-11-30T13:12:35.846Z,9.10
2022-11-30T13:15:09.805Z,9.10
2022-11-30T13:17:41.767Z,9.00
2022-11-30T13:20:17.610Z,9.00
2022-11-30T13:22:49.563Z,9.00
2022-11-30T13:25:34.061Z,9.00
2022-11-30T13:28:13.412Z,8.80
2022-11-30T13:30:45.258Z,8.90
2022-11-30T13:33:31.557Z,8.90
2022-11-30T13:35:59.257Z,8.90
2022-11-30T13:38:42.569Z,8.90
2022-11-30T13:41:10.417Z,8.90
2022-11-30T13:43:41.606Z,8.90
2022-11-30T13:46:16.236Z,8.90
2022-11-30T13:48:44.771Z,8.90
2022-11-30T13:51:12.944Z,8.90
2022-11-30T13:53:41.428Z,8.90
2022-11-30T13:56:27.795Z,8.90
2022-11-30T13:59:14.085Z,8.80
2022-11-30T14:01:43.216Z,8.80
2022-11-30T14:04:39.093Z,8.80
2022-11-30T14:07:34.415Z,8.60
2022-11-30T14:10:02.493Z,8.70
2022-11-30T14:12:46.529Z,8.60
2022-11-30T14:15:34.275Z,8.60
2022-11-30T14:18:05.773Z,8.60
2022-11-30T14:20:38.006Z,8.60
2022-11-30T14:23:07.125Z,8.60
2022-11-30T14:25:35.769Z,8.60
2022-11-30T14:28:04.165Z,8.60
2022-11-30T14:30:33.188Z,8.60
2022-11-30T14:33:03.636Z,8.60
2022-11-30T14:35:33.044Z,8.50
2022-11-30T14:38:03.491Z,8.50
2022-11-30T14:40:31.280Z,8.50
2022-11-30T14:43:01.313Z,8.50
2022-11-30T14:45:29.794Z,8.50
2022-11-30T14:48:05.753Z,8.40
2022-11-30T14:50:35.742Z,8.50
2022-11-30T14:53:15.321Z,8.50
2022-11-30T14:55:46.506Z,8.50
2022-11-30T14:58:18.738Z,8.50
2022-11-30T15:00:46.567Z,8.60
2022-11-30T15:03:19.250Z,8.60
2022-11-30T15:05:51.090Z,8.60
2022-11-30T15:08:19.443Z,8.60
2022-11-30T15:10:47.507Z,8.60
2022-11-30T15:13:16.638Z,8.60
2022-11-30T15:15:50.752Z,8.60
2022-11-30T15:18:19.801Z,8.60
2022-11-30T15:20:51.651Z,8.70
2022-11-30T15:23:19.348Z,8.70
2022-11-30T15:25:49.141Z,8.70
2022-11-30T15:28:19.701Z,8.70
2022-11-30T15:30:48.046Z,8.70
2022-11-30T15:33:19.038Z,8.80
2022-11-30T15:36:13.858Z,8.80
2022-11-30T15:38:37.127Z,8.90
2022-11-30T15:41:06.355Z,8.90
2022-11-30T15:43:37.312Z,8.80
2022-11-30T15:46:05.114Z,8.80
2022-11-30T15:48:34.245Z,8.70
2022-11-30T15:51:03.904Z,8.70
2022-11-30T15:53:33.329Z,8.70
2022-11-30T15:56:03.499Z,8.70
2022-11-30T15:58:36.929Z,8.60
2022-11-30T16:01:06.393Z,8.50
2022-11-30T16:03:34.761Z,8.50
2022-11-30T16:06:04.755Z,8.50
2022-11-30T16:08:32.726Z,8.50
2022-11-30T16:11:06.163Z,8.40
2022-11-30T16:13:36.600Z,8.40
2022-11-30T16:16:12.004Z,8.40
2022-11-30T16:18:39.765Z,8.20
2022-11-30T16:21:07.679Z,8.20
2022-11-30T16:23:36.100Z,8.10
2022-11-30T16:26:03.794Z,8.10
2022-11-30T16:28:31.470Z,8.10
2022-11-30T16:31:01.386Z,8.10
2022-11-30T16:33:29.113Z,8.10
2022-11-30T16:35:57.573Z,8.20
2022-11-30T16:38:25.744Z,8.20
2022-11-30T16:40:55.569Z,8.20
2022-11-30T16:43:23.370Z,8.20
2022-11-30T16:45:51.323Z,8.10
2022-11-30T16:48:20.493Z,8.10
2022-11-30T16:50:48.176Z,8.00
2022-11-30T16:53:15.880Z,8.00
2022-11-30T16:55:43.756Z,8.00
2022-11-30T16:58:11.489Z,7.90
2022-11-30T17:00:40.322Z,7.90
2022-11-30T17:03:09.768Z,7.80
2022-11-30T17:05:38.796Z,7.80
2022-11-30T17:08:06.586Z,7.70
2022-11-30T17:10:34.489Z,7.80
2022-11-30T17:13:02.205Z,7.80
2022-11-30T17:15:29.952Z,7.70
2022-11-30T17:17:59.270Z,7.70
2022-11-30T17:20:27.393Z,7.80
2022-11-30T17:22:56.645Z,7.80
2022-11-30T17:25:24.463Z,7.90
2022-11-30T17:27:52.295Z,8.00
2022-11-30T17:30:21.200Z,7.90
2022-11-30T17:32:50.046Z,8.00
2022-11-30T17:35:17.846Z,8.00
2022-11-30T17:37:45.522Z,8.00
2022-11-30T17:40:16.015Z,8.00
2022-11-30T17:42:43.902Z,8.00
2022-11-30T17:45:11.783Z,7.90
2022-11-30T17:47:39.769Z,7.90
2022-11-30T17:50:08.448Z,7.80
2022-11-30T17:52:36.135Z,7.80
2022-11-30T17:55:04.253Z,7.80
2022-11-30T17:57:33.449Z,7.80
2022-11-30T18:00:01.234Z,7.90
2022-11-30T18:02:28.945Z,7.90
2022-11-30T18:04:56.674Z,7.90
2022-11-30T18:07:24.392Z,7.80
2022-11-30T18:09:52.141Z,7.90
2022-11-30T18:12:19.802Z,7.80
2022-11-30T18:14:50.111Z,7.80
2022-11-30T18:17:18.024Z,7.80
2022-11-30T18:19:45.747Z,7.70
2022-11-30T18:22:13.403Z,7.70
2022-11-30T18:24:41.097Z,7.70
2022-11-30T18:27:08.789Z,7.70
2022-11-30T18:29:36.461Z,7.60
2022-11-30T18:32:05.826Z,7.60
2022-11-30T18:34:33.477Z,7.60
2022-11-30T18:37:01.173Z,7.60
2022-11-30T18:39:28.925Z,7.60
2022-11-30T18:41:56.626Z,7.70
2022-11-30T18:44:24.296Z,7.70
2022-11-30T18:46:52.033Z,7.80
2022-11-30T18:49:22.537Z,7.80
2022-11-30T18:51:50.197Z,7.90
2022-11-30T18:54:19.010Z,7.90
2022-11-30T18:56:46.730Z,8.00
2022-11-30T18:59:15.058Z,8.00
2022-11-30T19:01:42.929Z,8.00
2022-11-30T19:04:11.430Z,8.00
2022-11-30T19:06:41.116Z,7.90
2022-11-30T19:09:09.851Z,8.00
2022-11-30T19:11:37.938Z,8.00
2022-11-30T19:14:05.820Z,7.90
2022-11-30T19:16:34.821Z,7.80
2022-11-30T19:19:03.609Z,7.60
2022-11-30T19:21:31.310Z,7.70
2022-11-30T19:24:00.624Z,7.70
2022-11-30T19:26:28.613Z,7.60
2022-11-30T19:28:56.866Z,7.70
2022-11-30T19:31:25.267Z,7.70
2022-11-30T19:33:54.153Z,7.70
2022-11-30T19:36:23.246Z,7.80
2022-11-30T19:38:51.744Z,7.70
2022-11-30T19:41:21.491Z,7.80
2022-11-30T19:43:59.552Z,7.80
2022-11-30T19:46:31.537Z,7.80
2022-11-30T19:49:01.276Z,7.80
2022-11-30T19:51:29.766Z,7.80
2022-11-30T19:53:57.602Z,7.90
2022-11-30T19:56:27.147Z,7.90
2022-11-30T19:58:59.826Z,7.90
2022-11-30T20:01:31.793Z,8.00
2022-11-30T20:03:59.868Z,8.00
2022-11-30T20:06:28.815Z,8.00
2022-11-30T20:08:57.431Z,8.00
2022-11-30T20:11:25.401Z,8.00
2022-11-30T20:13:54.473Z,8.10
2022-11-30T20:16:23.241Z,8.10
2022-11-30T20:18:52.815Z,8.00
2022-11-30T20:21:21.049Z,8.00
2022-11-30T20:23:49.358Z,8.10
2022-11-30T20:26:18.208Z,8.10
2022-11-30T20:28:45.941Z,8.10
2022-11-30T20:31:15.586Z,8.10
2022-11-30T20:33:43.394Z,8.10
2022-11-30T20:36:11.794Z,8.10
2022-11-30T20:38:39.703Z,8.10
2022-11-30T20:41:10.404Z,8.10
2022-11-30T20:43:38.089Z,8.10
2022-11-30T20:46:12.892Z,8.10
2022-11-30T20:48:41.985Z,8.20
2022-11-30T20:53:58.395Z,8.10
2022-11-30T20:56:26.086Z,8.10
2022-11-30T20:58:53.769Z,8.10
2022-11-30T21:01:22.470Z,8.20
2022-11-30T21:03:51.655Z,8.20
2022-11-30T21:06:19.418Z,8.20
2022-11-30T21:08:47.120Z,8.20
2022-11-30T21:11:16.146Z,8.20
2022-11-30T21:13:44.609Z,8.10
2022-11-30T21:16:12.835Z,8.10
2022-11-30T21:18:41.203Z,8.10
2022-11-30T21:21:12.710Z,8.00
2022-11-30T21:23:40.415Z,8.00
2022-11-30T21:26:09.037Z,8.00
2022-11-30T21:28:38.371Z,7.90
2022-11-30T21:31:06.421Z,7.90
2022-11-30T21:33:34.152Z,7.80
2022-11-30T21:36:04.950Z,7.80
2022-11-30T21:38:34.377Z,7.90
2022-11-30T21:41:02.357Z,7.90
2022-11-30T21:43:31.226Z,8.00
2022-11-30T21:46:00.286Z,8.00
2022-11-30T21:48:29.845Z,8.30
2022-11-30T21:50:58.111Z,8.50
2022-11-30T21:53:25.950Z,8.70
2022-11-30T21:55:55.921Z,8.90
2022-11-30T21:58:23.916Z,9.00
2022-11-30T22:00:55.271Z,9.20
2022-11-30T22:03:23.164Z,9.30
2022-11-30T22:06:01.286Z,9.40
2022-11-30T22:08:29.473Z,9.50
2022-11-30T22:11:02.573Z,9.40
2022-11-30T22:13:30.633Z,9.50
2022-11-30T22:15:59.664Z,9.50
2022-11-30T22:18:27.549Z,9.50
2022-11-30T22:20:55.323Z,9.50
2022-11-30T22:23:22.999Z,9.50
2022-11-30T22:25:50.678Z,9.60
2022-11-30T22:28:19.723Z,9.60
2022-11-30T22:30:47.430Z,9.60
2022-11-30T22:33:15.119Z,9.60
2022-11-30T22:35:42.793Z,9.60
2022-11-30T22:38:10.470Z,9.30
2022-11-30T22:40:38.146Z,8.90
2022-11-30T22:43:05.819Z,8.60
2022-11-30T22:45:35.231Z,8.20
2022-11-30T22:48:03.302Z,7.90
2022-11-30T22:50:31.142Z,7.80
2022-11-30T22:53:03.277Z,7.90
2022-11-30T22:55:32.299Z,8.00
2022-11-30T22:58:00.050Z,8.10
2022-11-30T23:00:27.749Z,7.90
2022-11-30T23:02:56.810Z,7.90
2022-11-30T23:05:24.532Z,7.80
2022-11-30T23:07:52.258Z,7.70
2022-11-30T23:10:20.134Z,7.80
2022-11-30T23:13:02.717Z,7.60
2022-11-30T23:15:30.434Z,7.50
2022-11-30T23:18:00.064Z,7.50
2022-11-30T23:20:27.737Z,7.60
2022-11-30T23:22:55.542Z,7.80
2022-11-30T23:25:23.205Z,7.90
2022-11-30T23:27:50.920Z,8.00
2022-11-30T23:30:18.633Z,8.20
2022-11-30T23:32:46.316Z,8.30
2022-11-30T23:35:15.511Z,8.40
2022-11-30T23:37:43.228Z,8.50
2022-11-30T23:40:11.402Z,8.40
2022-11-30T23:42:39.094Z,8.30
2022-11-30T23:45:07.293Z,8.30
2022-11-30T23:47:34.980Z,8.30
2022-11-30T23:50:02.671Z,8.10
2022-11-30T23:52:42.093Z,7.80
2022-11-30T23:55:10.371Z,7.90
2022-11-30T23:57:38.081Z,8.00
